sensor_id;sensor_type;location;lat;lon;timestamp;P1;durP1;ratioP1;P2;durP2;ratioP2
9547;SDS011;4812;51.992;8.648;2023-05-10T00:02:19;13.48;;;8.85;;
9547;SDS011;4812;51.992;8.648;2023-05-10T00:05:05;14.68;;;8.75;;
9547;SDS011;4812;51.992;8.648;2023-05-10T00:07:52;11.55;;;8.07;;
9547;SDS011;4812;51.992;8.648;2023-05-10T00:10:38;13.75;;;8.98;;
9547;SDS011;4812;51.992;8.648;2023-05-10T00:13:25;14.82;;;8.05;;
9547;SDS011;4812;51.992;8.648;2023-05-10T00:16:11;13.82;;;8.43;;
9547;SDS011;4812;51.992;8.648;2023-05-10T00:18:59;16.58;;;8.75;;
9547;SDS011;4812;51.992;8.648;2023-05-10T00:21:45;17.88;;;9.32;;
9547;SDS011;4812;51.992;8.648;2023-05-10T00:24:32;16.55;;;9.10;;
9547;SDS011;4812;51.992;8.648;2023-05-10T00:27:24;16.40;;;9.57;;
9547;SDS011;4812;51.992;8.648;2023-05-10T00:30:17;16.63;;;9.50;;
9547;SDS011;4812;51.992;8.648;2023-05-10T00:33:10;19.90;;;10.40;;
9547;SDS011;4812;51.992;8.648;2023-05-10T00:36:05;22.20;;;11.07;;
9547;SDS011;4812;51.992;8.648;2023-05-10T00:38:58;21.77;;;11.13;;
9547;SDS011;4812;51.992;8.648;2023-05-10T00:41:51;27.60;;;11.13;;
9547;SDS011;4812;51.992;8.648;2023-05-10T00:44:44;23.17;;;11.73;;
9547;SDS011;4812;51.992;8.648;2023-05-10T00:47:37;25.40;;;12.27;;
9547;SDS011;4812;51.992;8.648;2023-05-10T00:50:30;25.65;;;12.63;;
9547;SDS011;4812;51.992;8.648;2023-05-10T00:53:24;22.52;;;10.07;;
9547;SDS011;4812;51.992;8.648;2023-05-10T00:56:17;20.80;;;10.20;;
9547;SDS011;4812;51.992;8.648;2023-05-10T00:59:11;23.38;;;11.45;;
9547;SDS011;4812;51.992;8.648;2023-05-10T01:02:04;26.20;;;11.65;;
9547;SDS011;4812;51.992;8.648;2023-05-10T01:04:57;27.38;;;11.35;;
9547;SDS011;4812;51.992;8.648;2023-05-10T01:07:50;32.50;;;12.55;;
9547;SDS011;4812;51.992;8.648;2023-05-10T01:10:44;25.20;;;10.80;;
9547;SDS011;4812;51.992;8.648;2023-05-10T01:13:38;26.48;;;11.35;;
9547;SDS011;4812;51.992;8.648;2023-05-10T01:19:52;31.17;;;12.68;;
9547;SDS011;4812;51.992;8.648;2023-05-10T01:26:02;27.70;;;11.80;;
9547;SDS011;4812;51.992;8.648;2023-05-10T01:29:16;32.95;;;12.10;;
9547;SDS011;4812;51.992;8.648;2023-05-10T01:35:29;37.38;;;14.55;;
9547;SDS011;4812;51.992;8.648;2023-05-10T01:41:39;43.50;;;14.45;;
9547;SDS011;4812;51.992;8.648;2023-05-10T01:44:35;41.05;;;14.48;;
9547;SDS011;4812;51.992;8.648;2023-05-10T01:47:31;46.88;;;16.08;;
9547;SDS011;4812;51.992;8.648;2023-05-10T01:50:29;40.00;;;14.23;;
9547;SDS011;4812;51.992;8.648;2023-05-10T01:53:22;41.05;;;13.48;;
9547;SDS011;4812;51.992;8.648;2023-05-10T01:56:15;39.78;;;14.65;;
9547;SDS011;4812;51.992;8.648;2023-05-10T01:59:11;46.15;;;15.00;;
9547;SDS011;4812;51.992;8.648;2023-05-10T02:05:17;47.28;;;17.25;;
9547;SDS011;4812;51.992;8.648;2023-05-10T02:08:12;45.60;;;15.55;;
9547;SDS011;4812;51.992;8.648;2023-05-10T02:14:17;7.00;;;4.88;;
9547;SDS011;4812;51.992;8.648;2023-05-10T02:17:11;11.02;;;5.97;;
9547;SDS011;4812;51.992;8.648;2023-05-10T02:20:05;15.93;;;7.65;;
9547;SDS011;4812;51.992;8.648;2023-05-10T02:26:04;19.65;;;6.60;;
9547;SDS011;4812;51.992;8.648;2023-05-10T02:28:57;7.40;;;2.80;;
9547;SDS011;4812;51.992;8.648;2023-05-10T02:31:51;4.63;;;2.63;;
9547;SDS011;4812;51.992;8.648;2023-05-10T02:38:32;5.60;;;2.92;;
9547;SDS011;4812;51.992;8.648;2023-05-10T02:44:39;6.05;;;3.17;;
9547;SDS011;4812;51.992;8.648;2023-05-10T02:47:33;6.03;;;3.33;;
9547;SDS011;4812;51.992;8.648;2023-05-10T02:50:27;3.45;;;2.55;;
9547;SDS011;4812;51.992;8.648;2023-05-10T02:53:21;6.05;;;3.67;;
9547;SDS011;4812;51.992;8.648;2023-05-10T02:56:15;9.32;;;4.55;;
9547;SDS011;4812;51.992;8.648;2023-05-10T02:59:12;8.95;;;4.95;;
9547;SDS011;4812;51.992;8.648;2023-05-10T03:02:06;13.98;;;7.18;;
9547;SDS011;4812;51.992;8.648;2023-05-10T03:04:59;15.23;;;8.18;;
9547;SDS011;4812;51.992;8.648;2023-05-10T03:07:50;20.60;;;9.23;;
9547;SDS011;4812;51.992;8.648;2023-05-10T03:10:47;15.50;;;8.30;;
9547;SDS011;4812;51.992;8.648;2023-05-10T03:17:11;19.08;;;9.05;;
9547;SDS011;4812;51.992;8.648;2023-05-10T03:20:09;29.00;;;11.38;;
9547;SDS011;4812;51.992;8.648;2023-05-10T03:26:17;23.98;;;10.60;;
9547;SDS011;4812;51.992;8.648;2023-05-10T03:29:13;25.83;;;11.50;;
9547;SDS011;4812;51.992;8.648;2023-05-10T03:32:06;37.03;;;12.48;;
9547;SDS011;4812;51.992;8.648;2023-05-10T03:35:01;23.55;;;12.32;;
9547;SDS011;4812;51.992;8.648;2023-05-10T03:37:53;44.20;;;14.38;;
9547;SDS011;4812;51.992;8.648;2023-05-10T03:40:45;26.50;;;12.20;;
9547;SDS011;4812;51.992;8.648;2023-05-10T03:43:38;27.88;;;12.02;;
9547;SDS011;4812;51.992;8.648;2023-05-10T03:46:30;23.08;;;10.15;;
9547;SDS011;4812;51.992;8.648;2023-05-10T03:49:23;24.75;;;11.07;;
9547;SDS011;4812;51.992;8.648;2023-05-10T03:55:30;30.17;;;12.82;;
9547;SDS011;4812;51.992;8.648;2023-05-10T04:01:41;21.17;;;9.90;;
9547;SDS011;4812;51.992;8.648;2023-05-10T04:07:46;16.85;;;9.07;;
9547;SDS011;4812;51.992;8.648;2023-05-10T04:10:41;20.60;;;9.90;;
9547;SDS011;4812;51.992;8.648;2023-05-10T04:13:34;19.15;;;9.60;;
9547;SDS011;4812;51.992;8.648;2023-05-10T04:16:27;14.98;;;7.93;;
9547;SDS011;4812;51.992;8.648;2023-05-10T04:19:20;15.48;;;7.82;;
9547;SDS011;4812;51.992;8.648;2023-05-10T04:22:13;15.02;;;6.60;;
9547;SDS011;4812;51.992;8.648;2023-05-10T04:25:07;9.88;;;4.90;;
9547;SDS011;4812;51.992;8.648;2023-05-10T04:28:01;5.82;;;2.88;;
9547;SDS011;4812;51.992;8.648;2023-05-10T04:31:00;4.50;;;2.20;;
9547;SDS011;4812;51.992;8.648;2023-05-10T04:37:29;3.03;;;1.63;;
9547;SDS011;4812;51.992;8.648;2023-05-10T04:43:54;2.88;;;1.63;;
9547;SDS011;4812;51.992;8.648;2023-05-10T04:49:53;2.45;;;1.48;;
9547;SDS011;4812;51.992;8.648;2023-05-10T04:52:46;5.22;;;1.98;;
9547;SDS011;4812;51.992;8.648;2023-05-10T04:55:39;2.85;;;1.80;;
9547;SDS011;4812;51.992;8.648;2023-05-10T04:58:32;3.53;;;1.80;;
9547;SDS011;4812;51.992;8.648;2023-05-10T05:01:25;4.90;;;2.13;;
9547;SDS011;4812;51.992;8.648;2023-05-10T05:04:18;4.53;;;2.42;;
9547;SDS011;4812;51.992;8.648;2023-05-10T05:07:11;5.53;;;3.00;;
9547;SDS011;4812;51.992;8.648;2023-05-10T05:10:03;5.65;;;2.90;;
9547;SDS011;4812;51.992;8.648;2023-05-10T05:16:22;3.58;;;2.40;;
9547;SDS011;4812;51.992;8.648;2023-05-10T05:22:23;2.83;;;1.73;;
9547;SDS011;4812;51.992;8.648;2023-05-10T05:28:40;3.90;;;2.10;;
9547;SDS011;4812;51.992;8.648;2023-05-10T05:31:33;2.95;;;2.03;;
9547;SDS011;4812;51.992;8.648;2023-05-10T05:34:26;2.33;;;1.52;;
9547;SDS011;4812;51.992;8.648;2023-05-10T05:37:20;3.28;;;1.80;;
9547;SDS011;4812;51.992;8.648;2023-05-10T05:40:14;2.83;;;1.90;;
9547;SDS011;4812;51.992;8.648;2023-05-10T05:43:07;3.85;;;2.20;;
9547;SDS011;4812;51.992;8.648;2023-05-10T05:46:00;5.35;;;2.10;;
9547;SDS011;4812;51.992;8.648;2023-05-10T05:48:53;3.35;;;2.05;;
9547;SDS011;4812;51.992;8.648;2023-05-10T05:51:45;2.30;;;2.00;;
9547;SDS011;4812;51.992;8.648;2023-05-10T05:54:39;4.63;;;1.90;;
9547;SDS011;4812;51.992;8.648;2023-05-10T06:00:49;4.13;;;1.90;;
9547;SDS011;4812;51.992;8.648;2023-05-10T06:06:36;3.00;;;1.52;;
9547;SDS011;4812;51.992;8.648;2023-05-10T06:09:29;2.15;;;1.48;;
9547;SDS011;4812;51.992;8.648;2023-05-10T06:15:33;2.75;;;1.63;;
9547;SDS011;4812;51.992;8.648;2023-05-10T06:18:27;2.70;;;2.08;;
9547;SDS011;4812;51.992;8.648;2023-05-10T06:21:19;4.05;;;1.85;;
9547;SDS011;4812;51.992;8.648;2023-05-10T06:24:12;3.55;;;1.83;;
9547;SDS011;4812;51.992;8.648;2023-05-10T06:27:05;3.13;;;1.67;;
9547;SDS011;4812;51.992;8.648;2023-05-10T06:33:11;5.10;;;1.80;;
9547;SDS011;4812;51.992;8.648;2023-05-10T06:36:05;2.13;;;1.55;;
9547;SDS011;4812;51.992;8.648;2023-05-10T06:38:57;2.50;;;1.27;;
9547;SDS011;4812;51.992;8.648;2023-05-10T06:41:50;1.75;;;1.63;;
9547;SDS011;4812;51.992;8.648;2023-05-10T06:44:43;3.92;;;1.70;;
9547;SDS011;4812;51.992;8.648;2023-05-10T06:47:36;2.78;;;1.60;;
9547;SDS011;4812;51.992;8.648;2023-05-10T06:50:29;4.10;;;1.80;;
9547;SDS011;4812;51.992;8.648;2023-05-10T06:53:23;2.38;;;1.60;;
9547;SDS011;4812;51.992;8.648;2023-05-10T06:59:13;2.92;;;1.65;;
9547;SDS011;4812;51.992;8.648;2023-05-10T07:02:07;3.65;;;1.60;;
9547;SDS011;4812;51.992;8.648;2023-05-10T07:05:00;2.67;;;1.60;;
9547;SDS011;4812;51.992;8.648;2023-05-10T07:08:05;2.42;;;1.65;;
9547;SDS011;4812;51.992;8.648;2023-05-10T07:11:03;1.25;;;1.10;;
9547;SDS011;4812;51.992;8.648;2023-05-10T07:13:58;6.03;;;1.80;;
9547;SDS011;4812;51.992;8.648;2023-05-10T07:20:12;2.95;;;1.73;;
9547;SDS011;4812;51.992;8.648;2023-05-10T07:26:31;2.28;;;1.48;;
9547;SDS011;4812;51.992;8.648;2023-05-10T07:32:48;4.78;;;2.50;;
9547;SDS011;4812;51.992;8.648;2023-05-10T07:38:50;4.35;;;2.53;;
9547;SDS011;4812;51.992;8.648;2023-05-10T07:44:56;5.25;;;3.33;;
9547;SDS011;4812;51.992;8.648;2023-05-10T07:51:00;4.75;;;3.22;;
9547;SDS011;4812;51.992;8.648;2023-05-10T07:53:53;4.85;;;3.50;;
9547;SDS011;4812;51.992;8.648;2023-05-10T07:56:46;7.05;;;4.07;;
9547;SDS011;4812;51.992;8.648;2023-05-10T07:59:39;8.55;;;4.30;;
9547;SDS011;4812;51.992;8.648;2023-05-10T08:02:34;7.68;;;5.00;;
9547;SDS011;4812;51.992;8.648;2023-05-10T08:08:45;9.40;;;5.05;;
9547;SDS011;4812;51.992;8.648;2023-05-10T08:11:40;10.15;;;6.03;;
9547;SDS011;4812;51.992;8.648;2023-05-10T08:14:33;7.45;;;5.20;;
9547;SDS011;4812;51.992;8.648;2023-05-10T08:17:27;9.02;;;6.60;;
9547;SDS011;4812;51.992;8.648;2023-05-10T08:23:30;8.15;;;6.60;;
9547;SDS011;4812;51.992;8.648;2023-05-10T08:26:23;11.90;;;6.88;;
9547;SDS011;4812;51.992;8.648;2023-05-10T08:29:16;12.25;;;7.68;;
9547;SDS011;4812;51.992;8.648;2023-05-10T08:32:08;11.45;;;7.63;;
9547;SDS011;4812;51.992;8.648;2023-05-10T08:35:01;14.48;;;7.60;;
9547;SDS011;4812;51.992;8.648;2023-05-10T08:37:51;10.50;;;7.50;;
9547;SDS011;4812;51.992;8.648;2023-05-10T08:40:45;11.75;;;8.25;;
9547;SDS011;4812;51.992;8.648;2023-05-10T08:43:38;13.30;;;8.60;;
9547;SDS011;4812;51.992;8.648;2023-05-10T08:46:33;16.95;;;9.10;;
9547;SDS011;4812;51.992;8.648;2023-05-10T08:49:27;15.77;;;9.97;;
9547;SDS011;4812;51.992;8.648;2023-05-10T08:52:23;14.85;;;9.73;;
9547;SDS011;4812;51.992;8.648;2023-05-10T08:58:26;14.18;;;8.73;;
9547;SDS011;4812;51.992;8.648;2023-05-10T09:01:18;13.68;;;9.02;;
9547;SDS011;4812;51.992;8.648;2023-05-10T09:04:12;14.38;;;9.95;;
9547;SDS011;4812;51.992;8.648;2023-05-10T09:07:05;19.40;;;9.38;;
9547;SDS011;4812;51.992;8.648;2023-05-10T09:09:58;14.15;;;9.90;;
9547;SDS011;4812;51.992;8.648;2023-05-10T09:12:51;17.98;;;12.10;;
9547;SDS011;4812;51.992;8.648;2023-05-10T09:15:47;19.15;;;12.48;;
9547;SDS011;4812;51.992;8.648;2023-05-10T09:18:40;19.63;;;12.02;;
9547;SDS011;4812;51.992;8.648;2023-05-10T09:21:33;24.95;;;13.07;;
9547;SDS011;4812;51.992;8.648;2023-05-10T09:27:39;21.52;;;12.60;;
9547;SDS011;4812;51.992;8.648;2023-05-10T09:30:33;17.60;;;11.25;;
9547;SDS011;4812;51.992;8.648;2023-05-10T09:33:26;19.58;;;11.43;;
9547;SDS011;4812;51.992;8.648;2023-05-10T09:36:19;20.33;;;12.20;;
9547;SDS011;4812;51.992;8.648;2023-05-10T09:39:12;21.40;;;13.23;;
9547;SDS011;4812;51.992;8.648;2023-05-10T09:42:06;20.02;;;13.23;;
9547;SDS011;4812;51.992;8.648;2023-05-10T09:45:02;16.75;;;11.77;;
9547;SDS011;4812;51.992;8.648;2023-05-10T09:47:56;20.10;;;12.57;;
9547;SDS011;4812;51.992;8.648;2023-05-10T09:54:18;16.77;;;11.60;;
9547;SDS011;4812;51.992;8.648;2023-05-10T09:57:18;15.87;;;11.93;;
9547;SDS011;4812;51.992;8.648;2023-05-10T10:00:15;17.13;;;11.93;;
9547;SDS011;4812;51.992;8.648;2023-05-10T10:06:35;16.80;;;11.48;;
9547;SDS011;4812;51.992;8.648;2023-05-10T10:12:49;13.07;;;9.50;;
9547;SDS011;4812;51.992;8.648;2023-05-10T10:15:41;10.05;;;8.73;;
9547;SDS011;4812;51.992;8.648;2023-05-10T10:18:34;12.05;;;9.30;;
9547;SDS011;4812;51.992;8.648;2023-05-10T10:21:29;12.48;;;8.43;;
9547;SDS011;4812;51.992;8.648;2023-05-10T10:27:38;13.10;;;9.52;;
9547;SDS011;4812;51.992;8.648;2023-05-10T10:30:38;13.10;;;10.20;;
9547;SDS011;4812;51.992;8.648;2023-05-10T10:33:32;12.82;;;9.35;;
9547;SDS011;4812;51.992;8.648;2023-05-10T10:36:40;9.68;;;8.50;;
9547;SDS011;4812;51.992;8.648;2023-05-10T10:39:27;11.32;;;8.52;;
9547;SDS011;4812;51.992;8.648;2023-05-10T10:42:14;11.45;;;8.85;;
9547;SDS011;4812;51.992;8.648;2023-05-10T10:45:11;13.18;;;9.05;;
9547;SDS011;4812;51.992;8.648;2023-05-10T10:51:12;10.40;;;8.05;;
9547;SDS011;4812;51.992;8.648;2023-05-10T10:54:08;10.40;;;7.43;;
9547;SDS011;4812;51.992;8.648;2023-05-10T10:57:09;9.43;;;6.70;;
9547;SDS011;4812;51.992;8.648;2023-05-10T11:03:25;7.63;;;6.18;;
9547;SDS011;4812;51.992;8.648;2023-05-10T11:06:16;7.97;;;5.53;;
9547;SDS011;4812;51.992;8.648;2023-05-10T11:09:21;7.50;;;5.38;;
9547;SDS011;4812;51.992;8.648;2023-05-10T11:12:16;9.67;;;5.50;;
9547;SDS011;4812;51.992;8.648;2023-05-10T11:15:08;9.27;;;5.45;;
9547;SDS011;4812;51.992;8.648;2023-05-10T11:18:16;7.35;;;5.18;;
9547;SDS011;4812;51.992;8.648;2023-05-10T11:21:11;7.60;;;5.80;;
9547;SDS011;4812;51.992;8.648;2023-05-10T11:24:10;8.65;;;5.55;;
9547;SDS011;4812;51.992;8.648;2023-05-10T11:27:07;9.02;;;5.57;;
9547;SDS011;4812;51.992;8.648;2023-05-10T11:30:00;8.23;;;5.00;;
9547;SDS011;4812;51.992;8.648;2023-05-10T11:36:17;4.85;;;4.07;;
9547;SDS011;4812;51.992;8.648;2023-05-10T11:39:11;6.80;;;3.85;;
9547;SDS011;4812;51.992;8.648;2023-05-10T11:42:05;6.63;;;4.50;;
9547;SDS011;4812;51.992;8.648;2023-05-10T11:45:08;8.40;;;3.70;;
9547;SDS011;4812;51.992;8.648;2023-05-10T11:48:02;8.27;;;3.85;;
9547;SDS011;4812;51.992;8.648;2023-05-10T11:50:54;5.55;;;3.78;;
9547;SDS011;4812;51.992;8.648;2023-05-10T11:53:50;6.50;;;4.30;;
9547;SDS011;4812;51.992;8.648;2023-05-10T11:56:44;6.28;;;4.05;;
9547;SDS011;4812;51.992;8.648;2023-05-10T11:59:37;5.00;;;4.47;;
9547;SDS011;4812;51.992;8.648;2023-05-10T12:02:34;6.50;;;4.40;;
9547;SDS011;4812;51.992;8.648;2023-05-10T12:05:26;7.15;;;4.35;;
9547;SDS011;4812;51.992;8.648;2023-05-10T12:08:20;9.82;;;5.63;;
9547;SDS011;4812;51.992;8.648;2023-05-10T12:14:37;8.52;;;5.05;;
9547;SDS011;4812;51.992;8.648;2023-05-10T12:17:29;8.60;;;5.68;;
9547;SDS011;4812;51.992;8.648;2023-05-10T12:20:23;8.05;;;5.20;;
9547;SDS011;4812;51.992;8.648;2023-05-10T12:23:16;9.35;;;7.50;;
9547;SDS011;4812;51.992;8.648;2023-05-10T12:29:42;14.60;;;9.65;;
9547;SDS011;4812;51.992;8.648;2023-05-10T12:35:44;19.17;;;10.93;;
9547;SDS011;4812;51.992;8.648;2023-05-10T12:38:38;14.10;;;7.53;;
9547;SDS011;4812;51.992;8.648;2023-05-10T12:41:28;10.88;;;7.57;;
9547;SDS011;4812;51.992;8.648;2023-05-10T12:44:21;9.68;;;6.63;;
9547;SDS011;4812;51.992;8.648;2023-05-10T12:47:15;12.38;;;6.90;;
9547;SDS011;4812;51.992;8.648;2023-05-10T12:50:08;10.20;;;7.35;;
9547;SDS011;4812;51.992;8.648;2023-05-10T12:53:00;9.88;;;6.72;;
9547;SDS011;4812;51.992;8.648;2023-05-10T12:55:53;11.40;;;7.47;;
9547;SDS011;4812;51.992;8.648;2023-05-10T12:58:46;11.75;;;7.10;;
9547;SDS011;4812;51.992;8.648;2023-05-10T13:01:39;13.20;;;6.70;;
9547;SDS011;4812;51.992;8.648;2023-05-10T13:04:33;11.80;;;7.43;;
9547;SDS011;4812;51.992;8.648;2023-05-10T13:07:28;11.85;;;7.30;;
9547;SDS011;4812;51.992;8.648;2023-05-10T13:10:21;10.63;;;7.05;;
9547;SDS011;4812;51.992;8.648;2023-05-10T13:13:15;12.65;;;8.30;;
9547;SDS011;4812;51.992;8.648;2023-05-10T13:16:09;12.80;;;9.03;;
9547;SDS011;4812;51.992;8.648;2023-05-10T13:19:02;11.98;;;8.23;;
9547;SDS011;4812;51.992;8.648;2023-05-10T13:25:04;12.02;;;8.43;;
9547;SDS011;4812;51.992;8.648;2023-05-10T13:27:57;11.40;;;8.20;;
9547;SDS011;4812;51.992;8.648;2023-05-10T13:30:50;8.95;;;6.90;;
9547;SDS011;4812;51.992;8.648;2023-05-10T13:33:43;10.85;;;8.00;;
9547;SDS011;4812;51.992;8.648;2023-05-10T13:36:37;9.80;;;7.25;;
9547;SDS011;4812;51.992;8.648;2023-05-10T13:39:30;12.80;;;8.90;;
9547;SDS011;4812;51.992;8.648;2023-05-10T13:42:27;13.77;;;8.30;;
9547;SDS011;4812;51.992;8.648;2023-05-10T13:45:20;8.70;;;6.60;;
9547;SDS011;4812;51.992;8.648;2023-05-10T13:48:12;14.52;;;8.27;;
9547;SDS011;4812;51.992;8.648;2023-05-10T13:51:05;13.07;;;8.18;;
9547;SDS011;4812;51.992;8.648;2023-05-10T13:53:57;18.75;;;10.40;;
9547;SDS011;4812;51.992;8.648;2023-05-10T13:56:49;12.27;;;6.28;;
9547;SDS011;4812;51.992;8.648;2023-05-10T13:59:44;9.73;;;6.70;;
9547;SDS011;4812;51.992;8.648;2023-05-10T14:05:48;14.30;;;8.35;;
9547;SDS011;4812;51.992;8.648;2023-05-10T14:08:41;13.93;;;8.07;;
9547;SDS011;4812;51.992;8.648;2023-05-10T14:11:35;12.50;;;6.82;;
9547;SDS011;4812;51.992;8.648;2023-05-10T14:14:27;8.75;;;5.95;;
9547;SDS011;4812;51.992;8.648;2023-05-10T14:20:52;8.95;;;5.65;;
9547;SDS011;4812;51.992;8.648;2023-05-10T14:23:44;8.02;;;4.70;;
9547;SDS011;4812;51.992;8.648;2023-05-10T14:26:37;9.93;;;5.00;;
9547;SDS011;4812;51.992;8.648;2023-05-10T14:29:30;7.35;;;5.40;;
9547;SDS011;4812;51.992;8.648;2023-05-10T14:32:24;6.88;;;5.32;;
9547;SDS011;4812;51.992;8.648;2023-05-10T14:35:18;7.45;;;5.30;;
9547;SDS011;4812;51.992;8.648;2023-05-10T14:38:13;9.60;;;5.03;;
9547;SDS011;4812;51.992;8.648;2023-05-10T14:41:03;8.43;;;5.20;;
9547;SDS011;4812;51.992;8.648;2023-05-10T14:43:56;10.85;;;6.10;;
9547;SDS011;4812;51.992;8.648;2023-05-10T14:46:49;9.60;;;6.38;;
9547;SDS011;4812;51.992;8.648;2023-05-10T14:49:42;10.15;;;6.68;;
9547;SDS011;4812;51.992;8.648;2023-05-10T14:52:34;11.13;;;7.45;;
9547;SDS011;4812;51.992;8.648;2023-05-10T14:55:29;17.90;;;9.52;;
9547;SDS011;4812;51.992;8.648;2023-05-10T15:01:54;14.60;;;8.93;;
9547;SDS011;4812;51.992;8.648;2023-05-10T15:08:16;16.77;;;8.40;;
9547;SDS011;4812;51.992;8.648;2023-05-10T15:14:42;13.38;;;8.20;;
9547;SDS011;4812;51.992;8.648;2023-05-10T15:17:34;16.83;;;10.48;;
9547;SDS011;4812;51.992;8.648;2023-05-10T15:20:27;18.95;;;9.90;;
9547;SDS011;4812;51.992;8.648;2023-05-10T15:23:20;15.45;;;9.95;;
9547;SDS011;4812;51.992;8.648;2023-05-10T15:26:13;16.67;;;10.95;;
9547;SDS011;4812;51.992;8.648;2023-05-10T15:32:26;13.13;;;9.57;;
9547;SDS011;4812;51.992;8.648;2023-05-10T15:35:20;14.40;;;9.07;;
9547;SDS011;4812;51.992;8.648;2023-05-10T15:38:13;12.23;;;8.20;;
9547;SDS011;4812;51.992;8.648;2023-05-10T15:41:06;12.80;;;8.90;;
9547;SDS011;4812;51.992;8.648;2023-05-10T15:43:59;11.90;;;8.52;;
9547;SDS011;4812;51.992;8.648;2023-05-10T15:46:51;15.00;;;7.88;;
9547;SDS011;4812;51.992;8.648;2023-05-10T15:49:46;11.23;;;7.32;;
9547;SDS011;4812;51.992;8.648;2023-05-10T15:52:38;9.57;;;6.70;;
9547;SDS011;4812;51.992;8.648;2023-05-10T15:55:31;8.73;;;6.05;;
9547;SDS011;4812;51.992;8.648;2023-05-10T15:58:25;8.25;;;5.82;;
9547;SDS011;4812;51.992;8.648;2023-05-10T16:01:17;12.43;;;6.32;;
9547;SDS011;4812;51.992;8.648;2023-05-10T16:04:10;9.15;;;6.55;;
9547;SDS011;4812;51.992;8.648;2023-05-10T16:07:04;9.93;;;6.75;;
9547;SDS011;4812;51.992;8.648;2023-05-10T16:09:56;12.38;;;7.60;;
9547;SDS011;4812;51.992;8.648;2023-05-10T16:12:48;14.63;;;7.97;;
9547;SDS011;4812;51.992;8.648;2023-05-10T16:15:45;11.13;;;7.85;;
9547;SDS011;4812;51.992;8.648;2023-05-10T16:18:38;16.13;;;8.48;;
9547;SDS011;4812;51.992;8.648;2023-05-10T16:21:32;13.90;;;8.35;;
9547;SDS011;4812;51.992;8.648;2023-05-10T16:24:25;17.55;;;9.48;;
9547;SDS011;4812;51.992;8.648;2023-05-10T16:30:31;18.02;;;10.55;;
9547;SDS011;4812;51.992;8.648;2023-05-10T16:36:36;17.40;;;11.57;;
9547;SDS011;4812;51.992;8.648;2023-05-10T16:42:42;17.42;;;10.60;;
9547;SDS011;4812;51.992;8.648;2023-05-10T16:45:34;17.98;;;10.00;;
9547;SDS011;4812;51.992;8.648;2023-05-10T16:48:28;17.67;;;10.02;;
9547;SDS011;4812;51.992;8.648;2023-05-10T16:51:20;14.73;;;8.85;;
9547;SDS011;4812;51.992;8.648;2023-05-10T16:54:13;19.10;;;9.48;;
9547;SDS011;4812;51.992;8.648;2023-05-10T16:57:08;14.15;;;7.82;;
9547;SDS011;4812;51.992;8.648;2023-05-10T17:00:01;10.57;;;6.88;;
9547;SDS011;4812;51.992;8.648;2023-05-10T17:02:54;16.48;;;7.70;;
9547;SDS011;4812;51.992;8.648;2023-05-10T17:08:45;12.82;;;7.10;;
9547;SDS011;4812;51.992;8.648;2023-05-10T17:11:38;13.85;;;8.18;;
9547;SDS011;4812;51.992;8.648;2023-05-10T17:14:32;15.48;;;7.07;;
9547;SDS011;4812;51.992;8.648;2023-05-10T17:17:26;17.83;;;8.10;;
9547;SDS011;4812;51.992;8.648;2023-05-10T17:23:32;13.82;;;6.20;;
9547;SDS011;4812;51.992;8.648;2023-05-10T17:26:24;10.30;;;6.40;;
9547;SDS011;4812;51.992;8.648;2023-05-10T17:32:39;6.53;;;3.55;;
9547;SDS011;4812;51.992;8.648;2023-05-10T17:38:53;5.57;;;3.35;;
9547;SDS011;4812;51.992;8.648;2023-05-10T17:41:46;7.32;;;3.47;;
9547;SDS011;4812;51.992;8.648;2023-05-10T17:44:48;6.28;;;4.07;;
9547;SDS011;4812;51.992;8.648;2023-05-10T17:47:42;6.78;;;3.80;;
9547;SDS011;4812;51.992;8.648;2023-05-10T17:50:35;5.63;;;3.15;;
9547;SDS011;4812;51.992;8.648;2023-05-10T17:53:27;6.32;;;4.20;;
9547;SDS011;4812;51.992;8.648;2023-05-10T17:59:26;9.80;;;4.85;;
9547;SDS011;4812;51.992;8.648;2023-05-10T18:02:18;9.43;;;5.22;;
9547;SDS011;4812;51.992;8.648;2023-05-10T18:08:17;6.18;;;4.35;;
9547;SDS011;4812;51.992;8.648;2023-05-10T18:14:33;7.00;;;4.05;;
9547;SDS011;4812;51.992;8.648;2023-05-10T18:17:31;8.50;;;4.70;;
9547;SDS011;4812;51.992;8.648;2023-05-10T18:20:27;8.00;;;4.47;;
9547;SDS011;4812;51.992;8.648;2023-05-10T18:26:32;4.47;;;3.17;;
9547;SDS011;4812;51.992;8.648;2023-05-10T18:29:24;7.00;;;3.17;;
9547;SDS011;4812;51.992;8.648;2023-05-10T18:32:17;9.35;;;4.82;;
9547;SDS011;4812;51.992;8.648;2023-05-10T18:35:09;10.07;;;5.10;;
9547;SDS011;4812;51.992;8.648;2023-05-10T18:38:04;8.95;;;4.53;;
9547;SDS011;4812;51.992;8.648;2023-05-10T18:40:56;6.35;;;4.18;;
9547;SDS011;4812;51.992;8.648;2023-05-10T18:43:48;9.27;;;5.22;;
9547;SDS011;4812;51.992;8.648;2023-05-10T18:46:41;11.55;;;6.15;;
9547;SDS011;4812;51.992;8.648;2023-05-10T18:49:34;9.93;;;5.28;;
9547;SDS011;4812;51.992;8.648;2023-05-10T18:55:32;11.45;;;5.25;;
9547;SDS011;4812;51.992;8.648;2023-05-10T19:01:42;22.83;;;9.65;;
9547;SDS011;4812;51.992;8.648;2023-05-10T19:04:35;27.02;;;9.38;;
9547;SDS011;4812;51.992;8.648;2023-05-10T19:07:27;17.63;;;7.55;;
9547;SDS011;4812;51.992;8.648;2023-05-10T19:10:21;9.38;;;5.35;;
9547;SDS011;4812;51.992;8.648;2023-05-10T19:13:11;11.45;;;6.55;;
9547;SDS011;4812;51.992;8.648;2023-05-10T19:16:05;17.53;;;8.40;;
9547;SDS011;4812;51.992;8.648;2023-05-10T19:19:03;17.13;;;8.77;;
9547;SDS011;4812;51.992;8.648;2023-05-10T19:25:09;13.35;;;7.25;;
9547;SDS011;4812;51.992;8.648;2023-05-10T19:28:03;19.50;;;9.07;;
9547;SDS011;4812;51.992;8.648;2023-05-10T19:34:08;15.35;;;7.72;;
9547;SDS011;4812;51.992;8.648;2023-05-10T19:37:01;23.05;;;9.60;;
9547;SDS011;4812;51.992;8.648;2023-05-10T19:39:53;23.85;;;10.88;;
9547;SDS011;4812;51.992;8.648;2023-05-10T19:42:47;23.48;;;10.63;;
9547;SDS011;4812;51.992;8.648;2023-05-10T19:49:00;37.95;;;12.63;;
9547;SDS011;4812;51.992;8.648;2023-05-10T19:55:24;25.55;;;11.57;;
9547;SDS011;4812;51.992;8.648;2023-05-10T20:02:04;24.30;;;9.75;;
9547;SDS011;4812;51.992;8.648;2023-05-10T20:08:10;27.17;;;11.00;;
9547;SDS011;4812;51.992;8.648;2023-05-10T20:11:04;31.17;;;10.43;;
9547;SDS011;4812;51.992;8.648;2023-05-10T20:13:57;31.52;;;10.50;;
9547;SDS011;4812;51.992;8.648;2023-05-10T20:16:49;30.20;;;11.88;;
9547;SDS011;4812;51.992;8.648;2023-05-10T20:22:56;26.33;;;10.65;;
9547;SDS011;4812;51.992;8.648;2023-05-10T20:35:16;36.40;;;13.25;;
9547;SDS011;4812;51.992;8.648;2023-05-10T20:38:09;41.05;;;13.57;;
9547;SDS011;4812;51.992;8.648;2023-05-10T20:41:01;41.45;;;13.57;;
9547;SDS011;4812;51.992;8.648;2023-05-10T20:47:12;41.28;;;12.73;;
9547;SDS011;4812;51.992;8.648;2023-05-10T20:50:06;40.83;;;14.00;;
9547;SDS011;4812;51.992;8.648;2023-05-10T20:56:12;33.10;;;12.55;;
9547;SDS011;4812;51.992;8.648;2023-05-10T20:59:04;36.30;;;14.00;;
9547;SDS011;4812;51.992;8.648;2023-05-10T21:05:20;44.33;;;15.05;;
9547;SDS011;4812;51.992;8.648;2023-05-10T21:08:13;46.97;;;14.73;;
9547;SDS011;4812;51.992;8.648;2023-05-10T21:11:06;52.55;;;15.52;;
9547;SDS011;4812;51.992;8.648;2023-05-10T21:13:58;49.35;;;16.77;;
9547;SDS011;4812;51.992;8.648;2023-05-10T21:16:51;46.83;;;17.42;;
9547;SDS011;4812;51.992;8.648;2023-05-10T21:19:45;57.13;;;16.95;;
9547;SDS011;4812;51.992;8.648;2023-05-10T21:22:39;62.40;;;17.27;;
9547;SDS011;4812;51.992;8.648;2023-05-10T21:25:31;54.85;;;17.98;;
9547;SDS011;4812;51.992;8.648;2023-05-10T21:31:32;56.90;;;18.52;;
9547;SDS011;4812;51.992;8.648;2023-05-10T21:34:24;50.35;;;18.75;;
9547;SDS011;4812;51.992;8.648;2023-05-10T21:37:17;48.08;;;17.98;;
9547;SDS011;4812;51.992;8.648;2023-05-10T21:40:12;55.65;;;19.75;;
9547;SDS011;4812;51.992;8.648;2023-05-10T21:43:05;53.55;;;18.25;;
9547;SDS011;4812;51.992;8.648;2023-05-10T21:45:58;48.47;;;18.23;;
9547;SDS011;4812;51.992;8.648;2023-05-10T21:48:51;55.95;;;18.73;;
9547;SDS011;4812;51.992;8.648;2023-05-10T21:51:44;64.78;;;19.13;;
9547;SDS011;4812;51.992;8.648;2023-05-10T21:54:37;60.50;;;19.20;;
9547;SDS011;4812;51.992;8.648;2023-05-10T21:57:32;87.05;;;22.42;;
9547;SDS011;4812;51.992;8.648;2023-05-10T22:00:24;73.00;;;21.67;;
9547;SDS011;4812;51.992;8.648;2023-05-10T22:03:16;73.85;;;22.67;;